createdAt,value
2022-10-25T00:01:48.955Z,78556.59
2022-10-25T00:04:18.641Z,78546.84
2022-10-25T00:06:47.422Z,78537.03
2022-10-25T00:09:16.274Z,78553.94
2022-10-25T00:11:45.079Z,78543.69
2022-10-25T00:14:19.511Z,78550.47
2022-10-25T00:16:49.071Z,78549.50
2022-10-25T00:19:17.671Z,78549.25
2022-10-25T00:21:46.873Z,78553.28
2022-10-25T00:24:17.309Z,78551.97
2022-10-25T00:26:47.006Z,78548.16
2022-10-25T00:29:15.607Z,78552.78
2022-10-25T00:31:45.157Z,78552.94
2022-10-25T00:34:13.706Z,78558.16
2022-10-25T00:36:42.459Z,78540.50
2022-10-25T00:39:11.191Z,78564.03
2022-10-25T00:41:39.918Z,78539.19
2022-10-25T00:44:42.510Z,78559.97
2022-10-25T00:47:23.587Z,78567.25
2022-10-25T00:50:12.416Z,78553.09
2022-10-25T00:52:43.959Z,78550.06
2022-10-25T00:55:16.360Z,78560.59
2022-10-25T00:57:53.676Z,78559.13
2022-10-25T01:00:23.392Z,78532.78
2022-10-25T01:02:53.023Z,78567.50
2022-10-25T01:05:22.892Z,78561.13
2022-10-25T01:07:51.931Z,78563.50
2022-10-25T01:10:21.078Z,78540.88
2022-10-25T01:12:52.089Z,78573.19
2022-10-25T01:15:27.031Z,78574.97
2022-10-25T01:18:33.450Z,78564.75
2022-10-25T01:21:37.257Z,78583.84
2022-10-25T01:24:14.203Z,78578.97
2022-10-25T01:27:24.626Z,78586.16
2022-10-25T01:30:02.163Z,78586.03
2022-10-25T01:32:34.026Z,78585.13
2022-10-25T01:35:34.047Z,78587.47
2022-10-25T01:38:21.098Z,78581.03
2022-10-25T01:41:17.580Z,78583.13
2022-10-25T01:43:57.596Z,78586.66
2022-10-25T01:46:59.511Z,78580.19
2022-10-25T01:49:32.601Z,78582.38
2022-10-25T01:52:01.458Z,78528.13
2022-10-25T01:54:31.194Z,78597.91
2022-10-25T01:57:08.894Z,78581.13
2022-10-25T01:59:52.319Z,78590.22
2022-10-25T02:02:49.905Z,78596.03
2022-10-25T02:05:59.886Z,78593.72
2022-10-25T02:08:42.991Z,78599.84
2022-10-25T02:11:32.820Z,78598.59
2022-10-25T02:14:01.577Z,78597.19
2022-10-25T02:16:35.610Z,78600.47
2022-10-25T02:19:07.893Z,78600.09
2022-10-25T02:21:38.088Z,78594.41
2022-10-25T02:24:13.418Z,78582.56
2022-10-25T02:26:44.640Z,78607.94
2022-10-25T02:29:15.594Z,78594.75
2022-10-25T02:31:45.796Z,78606.97
2022-10-25T02:34:14.543Z,78612.00
2022-10-25T02:36:44.417Z,78584.81
2022-10-25T02:39:13.513Z,78615.78
2022-10-25T02:41:42.556Z,78625.22
2022-10-25T02:44:11.102Z,78622.06
2022-10-25T02:46:40.268Z,78626.63
2022-10-25T02:49:08.894Z,78610.31
2022-10-25T02:51:37.804Z,78619.81
2022-10-25T02:54:06.577Z,78607.16
2022-10-25T02:56:35.365Z,78611.09
2022-10-25T02:59:03.966Z,78615.59
2022-10-25T03:01:32.887Z,78636.44
2022-10-25T03:04:01.652Z,78633.53
2022-10-25T03:06:30.619Z,78636.44
2022-10-25T03:08:59.259Z,78635.38
2022-10-25T03:11:28.312Z,78629.72
2022-10-25T03:13:57.055Z,78624.66
2022-10-25T03:16:26.872Z,78644.50
2022-10-25T03:18:59.197Z,78628.06
2022-10-25T03:21:28.166Z,78624.19
2022-10-25T03:23:57.698Z,78656.28
2022-10-25T03:26:26.368Z,78626.94
2022-10-25T03:28:55.441Z,78642.28
2022-10-25T03:31:26.043Z,78641.66
2022-10-25T03:33:54.980Z,78653.09
2022-10-25T03:36:23.724Z,78646.19
2022-10-25T03:38:53.151Z,78642.13
2022-10-25T03:41:22.004Z,78655.25
2022-10-25T03:43:50.821Z,78665.69
2022-10-25T03:46:19.337Z,78668.03
2022-10-25T03:48:48.214Z,78660.31
2022-10-25T03:51:16.968Z,78655.03
2022-10-25T03:53:45.992Z,78637.72
2022-10-25T03:56:15.033Z,78657.53
2022-10-25T03:58:44.072Z,78656.81
2022-10-25T04:01:12.874Z,78635.56
2022-10-25T04:03:41.835Z,78661.22
2022-10-25T04:06:11.432Z,78671.13
2022-10-25T04:08:40.275Z,78660.09
2022-10-25T04:11:08.901Z,78665.28
2022-10-25T04:13:37.917Z,78673.16
2022-10-25T04:16:10.783Z,78683.53
2022-10-25T04:18:39.560Z,78657.94
2022-10-25T04:21:08.129Z,78675.50
2022-10-25T04:23:37.515Z,78677.28
2022-10-25T04:26:06.384Z,78677.91
2022-10-25T04:28:35.293Z,78693.00
2022-10-25T04:31:04.722Z,78699.22
2022-10-25T04:33:33.735Z,78675.31
2022-10-25T04:36:02.396Z,78666.25
2022-10-25T04:38:31.268Z,78681.75
2022-10-25T04:41:01.936Z,78692.44
2022-10-25T04:43:31.308Z,78687.06
2022-10-25T04:46:03.274Z,78687.38
2022-10-25T04:48:32.175Z,78673.28
2022-10-25T04:51:01.405Z,78670.66
2022-10-25T04:53:30.369Z,78673.38
2022-10-25T04:56:03.607Z,78690.72
2022-10-25T04:58:33.434Z,78683.25
2022-10-25T05:01:06.781Z,78686.91
2022-10-25T05:03:36.447Z,78650.84
2022-10-25T05:06:17.328Z,78685.84
2022-10-25T05:08:49.294Z,78670.38
2022-10-25T05:11:20.473Z,78682.41
2022-10-25T05:13:49.809Z,78687.69
2022-10-25T05:16:25.219Z,78680.72
2022-10-25T05:18:57.230Z,78686.31
2022-10-25T05:21:29.308Z,78671.75
2022-10-25T05:24:02.732Z,78677.94
2022-10-25T05:26:33.001Z,78676.16
2022-10-25T05:29:03.661Z,78663.19
2022-10-25T05:31:34.779Z,78663.75
2022-10-25T05:34:05.337Z,78682.31
2022-10-25T05:36:34.536Z,78676.66
2022-10-25T05:39:03.360Z,78672.97
2022-10-25T05:41:34.806Z,78682.66
2022-10-25T05:44:07.118Z,78671.75
2022-10-25T05:46:36.234Z,78672.03
2022-10-25T05:49:05.693Z,78665.44
2022-10-25T05:51:36.623Z,78667.81
2022-10-25T05:54:16.536Z,78670.34
2022-10-25T05:56:45.908Z,78667.84
2022-10-25T05:59:16.402Z,78640.47
2022-10-25T06:01:47.618Z,78668.00
2022-10-25T06:04:17.706Z,78670.13
2022-10-25T06:06:48.774Z,78640.13
2022-10-25T06:09:19.184Z,78651.84
2022-10-25T06:11:48.155Z,78648.09
2022-10-25T06:14:16.911Z,78666.25
2022-10-25T06:16:45.675Z,78648.94
2022-10-25T06:19:14.409Z,78662.00
2022-10-25T06:21:43.344Z,78642.56
2022-10-25T06:24:12.054Z,78648.19
2022-10-25T06:26:40.999Z,78659.59
2022-10-25T06:29:10.689Z,78654.72
2022-10-25T06:31:39.747Z,78648.19
2022-10-25T06:34:08.410Z,78647.28
2022-10-25T06:36:37.361Z,78654.25
2022-10-25T06:39:07.038Z,78645.03
2022-10-25T06:41:38.000Z,78653.44
2022-10-25T06:44:07.823Z,78646.50
2022-10-25T06:49:28.412Z,78654.97
2022-10-25T06:51:57.223Z,78634.47
2022-10-25T06:54:27.929Z,78647.69
2022-10-25T06:56:56.734Z,78645.38
2022-10-25T06:59:25.828Z,78632.50
2022-10-25T07:01:57.665Z,78651.50
2022-10-25T07:04:26.718Z,78636.03
2022-10-25T07:06:55.601Z,78625.38
2022-10-25T07:09:26.051Z,78631.94
2022-10-25T07:11:54.992Z,78644.34
2022-10-25T07:14:23.530Z,78616.19
2022-10-25T07:16:52.386Z,78643.28
2022-10-25T07:19:21.236Z,78628.31
2022-10-25T07:21:49.945Z,78630.78
2022-10-25T07:24:19.121Z,78638.41
2022-10-25T07:26:48.037Z,78635.38
2022-10-25T07:29:16.790Z,78643.69
2022-10-25T07:31:45.888Z,78634.69
2022-10-25T07:34:17.044Z,78648.31
2022-10-25T07:36:45.923Z,78641.44
2022-10-25T07:39:14.573Z,78627.22
2022-10-25T07:41:43.942Z,78633.84
2022-10-25T07:44:16.214Z,78638.13
2022-10-25T07:46:47.341Z,78630.44
2022-10-25T07:49:16.182Z,78637.03
2022-10-25T07:51:45.549Z,78609.72
2022-10-25T07:54:14.262Z,78635.22
2022-10-25T07:56:43.205Z,78606.81
2022-10-25T07:59:11.808Z,78629.81
2022-10-25T08:01:40.721Z,78614.72
2022-10-25T08:04:09.739Z,78620.63
2022-10-25T08:06:38.488Z,78609.41
2022-10-25T08:09:15.000Z,78629.41
2022-10-25T08:11:49.532Z,78613.25
2022-10-25T08:14:18.356Z,78627.06
2022-10-25T08:16:47.302Z,78614.91
2022-10-25T08:19:15.877Z,78625.81
2022-10-25T08:21:44.857Z,78601.56
2022-10-25T08:24:13.706Z,78624.31
2022-10-25T08:26:42.509Z,78619.84
2022-10-25T08:29:11.313Z,78624.09
2022-10-25T08:31:40.261Z,78608.41
2022-10-25T08:34:09.036Z,78619.09
2022-10-25T08:36:38.100Z,78607.19
2022-10-25T08:39:06.802Z,78608.78
2022-10-25T08:41:49.359Z,78617.03
2022-10-25T08:44:28.067Z,78605.91
2022-10-25T08:47:11.429Z,78613.03
2022-10-25T08:50:04.383Z,78617.06
2022-10-25T08:52:56.866Z,78598.78
2022-10-25T08:55:41.779Z,78605.50
2022-10-25T08:58:28.670Z,78611.38
2022-10-25T09:01:01.816Z,78603.25
2022-10-25T09:03:31.492Z,78613.00
2022-10-25T09:06:15.358Z,78609.13
2022-10-25T09:09:20.031Z,78606.97
2022-10-25T09:12:19.443Z,78611.66
2022-10-25T09:14:55.188Z,78617.34
2022-10-25T09:17:28.520Z,78616.34
2022-10-25T09:20:08.355Z,78620.66
2022-10-25T09:22:46.274Z,78631.97
2022-10-25T09:25:47.426Z,78628.41
2022-10-25T09:28:38.956Z,78632.31
2022-10-25T09:31:12.635Z,78623.81
2022-10-25T09:33:46.072Z,78630.00
2022-10-25T09:36:16.247Z,78631.28
2022-10-25T09:38:57.315Z,78618.78
2022-10-25T09:41:41.530Z,78628.28
2022-10-25T09:44:36.697Z,78641.53
2022-10-25T09:47:19.599Z,78638.69
2022-10-25T09:50:03.136Z,78633.38
2022-10-25T09:53:10.382Z,78632.47
2022-10-25T09:55:54.797Z,78643.50
2022-10-25T09:58:27.433Z,78651.28
2022-10-25T10:01:00.547Z,78645.28
2022-10-25T10:03:32.046Z,78631.03
2022-10-25T10:06:05.503Z,78612.75
2022-10-25T10:08:37.012Z,78640.59
2022-10-25T10:11:07.972Z,78640.50
2022-10-25T10:13:49.671Z,78647.09
2022-10-25T10:16:32.465Z,78640.25
2022-10-25T10:19:20.795Z,78618.63
2022-10-25T10:22:00.137Z,78641.25
2022-10-25T10:24:43.502Z,78642.94
2022-10-25T10:27:26.555Z,78618.03
2022-10-25T10:30:08.284Z,78643.38
2022-10-25T10:32:42.176Z,78610.94
2022-10-25T10:35:31.819Z,78643.59
2022-10-25T10:38:28.021Z,78641.00
2022-10-25T10:41:21.988Z,78637.28
2022-10-25T10:43:50.955Z,78639.47
2022-10-25T10:46:25.733Z,78646.56
2022-10-25T10:48:58.054Z,78644.97
2022-10-25T10:51:44.666Z,78638.94
2022-10-25T10:54:15.707Z,78658.59
2022-10-25T10:56:44.791Z,78655.41
2022-10-25T10:59:33.651Z,78656.91
2022-10-25T11:02:35.871Z,78661.81
2022-10-25T11:05:22.069Z,78673.19
2022-10-25T11:08:17.449Z,78673.94
2022-10-25T11:10:46.207Z,78662.84
2022-10-25T11:13:20.554Z,78653.06
2022-10-25T11:15:58.339Z,78681.91
2022-10-25T11:19:08.503Z,78685.66
2022-10-25T11:21:49.349Z,78683.41
2022-10-25T11:24:54.539Z,78688.16
2022-10-25T11:27:54.130Z,78691.50
2022-10-25T11:30:25.211Z,78688.53
2022-10-25T11:33:34.231Z,78678.88
2022-10-25T11:36:24.134Z,78692.09
2022-10-25T11:39:08.369Z,78692.31
2022-10-25T11:41:44.683Z,78700.91
2022-10-25T11:44:34.892Z,78696.91
2022-10-25T11:47:35.167Z,78694.94
2022-10-25T11:50:25.173Z,78677.38
2022-10-25T11:53:12.820Z,78696.94
2022-10-25T11:55:55.882Z,78707.38
2022-10-25T11:58:52.999Z,78713.94
2022-10-25T12:01:39.655Z,78709.84
2022-10-25T12:04:25.498Z,78709.09
2022-10-25T12:07:00.296Z,78717.50
2022-10-25T12:09:54.067Z,78703.50
2022-10-25T12:12:28.043Z,78711.75
2022-10-25T12:15:00.940Z,78695.03
2022-10-25T12:17:32.377Z,78710.41
2022-10-25T12:20:06.427Z,78717.00
2022-10-25T12:22:48.777Z,78713.28
2022-10-25T12:25:52.047Z,78725.03
2022-10-25T12:28:47.089Z,78730.47
2022-10-25T12:31:28.108Z,78720.56
2022-10-25T12:34:15.003Z,78727.44
2022-10-25T12:36:51.431Z,78725.59
2022-10-25T12:39:26.709Z,78741.53
2022-10-25T12:42:07.015Z,78746.22
2022-10-25T12:44:48.272Z,78751.53
2022-10-25T12:47:35.512Z,78752.72
2022-10-25T12:50:25.426Z,78766.06
2022-10-25T12:53:00.667Z,78761.34
2022-10-25T12:55:42.376Z,78758.25
2022-10-25T12:58:21.956Z,78748.91
2022-10-25T13:01:11.843Z,78765.34
2022-10-25T13:04:14.709Z,78757.66
2022-10-25T13:06:49.916Z,78767.38
2022-10-25T13:09:26.851Z,78768.31
2022-10-25T13:12:17.202Z,78768.22
2022-10-25T13:14:51.639Z,78771.59
2022-10-25T13:17:21.351Z,78777.53
2022-10-25T13:19:55.581Z,78768.78
2022-10-25T13:22:39.776Z,78787.59
2022-10-25T13:25:14.780Z,78787.50
2022-10-25T13:28:12.453Z,78790.50
2022-10-25T13:30:41.604Z,78776.09
2022-10-25T13:33:25.509Z,78786.06
2022-10-25T13:35:54.806Z,78792.75
2022-10-25T13:38:43.573Z,78796.75
2022-10-25T13:41:20.617Z,78791.72
2022-10-25T13:44:00.547Z,78813.13
2022-10-25T13:46:42.207Z,78807.59
2022-10-25T13:49:34.188Z,78813.28
2022-10-25T13:52:07.190Z,78818.25
2022-10-25T13:54:52.111Z,78838.22
2022-10-25T13:57:45.610Z,78833.81
2022-10-25T14:00:39.551Z,78836.69
2022-10-25T14:03:13.547Z,78834.06
2022-10-25T14:05:57.914Z,78833.50
2022-10-25T14:08:28.785Z,78821.19
2022-10-25T14:11:04.539Z,78830.47
2022-10-25T14:13:53.265Z,78814.78
2022-10-25T14:16:34.370Z,78830.22
2022-10-25T14:19:49.230Z,78832.19
2022-10-25T14:22:18.069Z,78841.47
2022-10-25T14:24:51.509Z,78842.47
2022-10-25T14:27:35.096Z,78845.16
2022-10-25T14:30:26.864Z,78850.53
2022-10-25T14:33:01.627Z,78851.31
2022-10-25T14:35:48.040Z,78858.72
2022-10-25T14:38:21.590Z,78852.06
2022-10-25T14:41:02.229Z,78848.81
2022-10-25T14:43:39.397Z,78845.97
2022-10-25T14:46:18.212Z,78863.59
2022-10-25T14:48:49.321Z,78868.00
2022-10-25T14:51:27.783Z,78870.44
2022-10-25T14:53:59.153Z,78867.88
2022-10-25T14:56:33.112Z,78850.59
2022-10-25T14:59:03.649Z,78846.03
2022-10-25T15:01:32.578Z,78877.53
2022-10-25T15:04:02.607Z,78885.41
2022-10-25T15:06:33.494Z,78889.38
2022-10-25T15:12:09.408Z,78889.38
2022-10-25T15:14:38.667Z,78885.09
2022-10-25T15:17:20.676Z,78875.59
2022-10-25T15:20:27.419Z,78899.09
2022-10-25T15:23:14.383Z,78889.94
2022-10-25T15:25:43.612Z,78869.88
2022-10-25T15:28:15.115Z,78871.06
2022-10-25T15:30:50.216Z,78887.22
2022-10-25T15:33:39.212Z,78882.94
2022-10-25T15:36:08.371Z,78856.50
2022-10-25T15:39:05.328Z,78887.28
2022-10-25T15:41:27.824Z,78888.47
2022-10-25T15:43:56.498Z,78881.28
2022-10-25T15:46:34.045Z,78876.88
2022-10-25T15:49:07.591Z,78890.56
2022-10-25T15:51:41.121Z,78899.22
2022-10-25T15:54:21.851Z,78891.25
2022-10-25T15:56:52.603Z,78877.44
2022-10-25T15:59:21.480Z,78868.00
2022-10-25T16:01:54.181Z,78888.41
2022-10-25T16:04:23.223Z,78883.13
2022-10-25T16:06:52.068Z,78902.34
2022-10-25T16:09:20.949Z,78903.16
2022-10-25T16:11:55.579Z,78893.22
2022-10-25T16:14:28.423Z,78884.16
2022-10-25T16:17:00.871Z,78894.06
2022-10-25T16:19:32.503Z,78886.94
2022-10-25T16:22:01.519Z,78898.00
2022-10-25T16:24:30.308Z,78880.38
2022-10-25T16:27:00.270Z,78886.97
2022-10-25T16:29:29.234Z,78889.56
2022-10-25T16:31:58.353Z,78871.97
2022-10-25T16:34:27.004Z,78903.06
2022-10-25T16:36:55.887Z,78892.06
2022-10-25T16:39:24.577Z,78907.34
2022-10-25T16:41:55.972Z,78901.91
2022-10-25T16:44:25.611Z,78825.06
2022-10-25T16:46:54.474Z,78895.06
2022-10-25T16:49:23.334Z,78870.00
2022-10-25T16:51:53.180Z,78909.41
2022-10-25T16:54:24.132Z,78875.75
2022-10-25T16:56:53.409Z,78887.03
2022-10-25T16:59:21.969Z,78891.88
2022-10-25T17:01:56.436Z,78908.38
2022-10-25T17:04:25.457Z,78893.28
2022-10-25T17:06:54.228Z,78911.88
2022-10-25T17:09:23.157Z,78915.28
2022-10-25T17:11:51.694Z,78900.97
2022-10-25T17:14:20.484Z,78905.16
2022-10-25T17:16:49.429Z,78901.91
2022-10-25T17:19:18.193Z,78897.50
2022-10-25T17:21:46.719Z,78921.31
2022-10-25T17:24:17.721Z,78904.34
2022-10-25T17:26:47.367Z,78908.75
2022-10-25T17:29:16.464Z,78903.50
2022-10-25T17:31:46.690Z,78918.75
2022-10-25T17:34:15.409Z,78910.31
2022-10-25T17:36:44.347Z,78913.00
2022-10-25T17:39:14.357Z,78891.53
2022-10-25T17:41:43.268Z,78916.03
2022-10-25T17:44:12.502Z,78923.06
2022-10-25T17:46:41.441Z,78912.97
2022-10-25T17:49:10.991Z,78906.41
2022-10-25T17:51:39.760Z,78899.78
2022-10-25T17:54:10.229Z,78883.13
2022-10-25T17:56:39.005Z,78897.31
2022-10-25T17:59:08.152Z,78888.94
2022-10-25T18:01:37.568Z,78913.94
2022-10-25T18:04:06.629Z,78909.25
2022-10-25T18:06:35.601Z,78906.75
2022-10-25T18:09:05.683Z,78897.19
2022-10-25T18:11:34.425Z,78919.06
2022-10-25T18:14:03.280Z,78904.78
2022-10-25T18:16:33.610Z,78932.38
2022-10-25T18:19:05.276Z,78900.38
2022-10-25T18:21:34.914Z,78899.69
2022-10-25T18:24:08.547Z,78913.59
2022-10-25T18:26:37.748Z,78905.88
2022-10-25T18:29:24.712Z,78842.09
2022-10-25T18:31:55.322Z,78907.06
2022-10-25T18:34:26.257Z,78900.56
2022-10-25T18:36:55.531Z,78925.59
2022-10-25T18:39:24.491Z,78903.13
2022-10-25T18:41:55.982Z,78912.41
2022-10-25T18:44:25.524Z,78898.66
2022-10-25T18:46:55.115Z,78912.53
2022-10-25T18:49:25.007Z,78915.28
2022-10-25T18:51:54.126Z,78913.22
2022-10-25T18:54:23.288Z,78906.75
2022-10-25T18:56:52.337Z,78899.53
2022-10-25T18:59:21.583Z,78879.69
2022-10-25T19:01:50.592Z,78903.38
2022-10-25T19:04:20.978Z,78904.72
2022-10-25T19:06:50.263Z,78883.19
2022-10-25T19:09:19.242Z,78884.69
2022-10-25T19:11:48.899Z,78888.81
2022-10-25T19:14:18.344Z,78897.63
2022-10-25T19:16:47.401Z,78891.78
2022-10-25T19:19:17.033Z,78885.13
2022-10-25T19:21:47.360Z,78881.81
2022-10-25T19:24:19.039Z,78873.28
2022-10-25T19:26:48.255Z,78832.53
2022-10-25T19:29:17.504Z,78868.78
2022-10-25T19:31:46.865Z,78847.59
2022-10-25T19:34:15.855Z,78879.78
2022-10-25T19:36:44.979Z,78875.13
2022-10-25T19:39:14.563Z,78875.16
2022-10-25T19:41:45.155Z,78882.56
2022-10-25T19:44:14.123Z,78870.44
2022-10-25T19:46:43.871Z,78871.25
2022-10-25T19:49:13.689Z,78880.56
2022-10-25T19:51:43.161Z,78861.06
2022-10-25T19:54:12.652Z,78852.47
2022-10-25T19:56:42.286Z,78859.81
2022-10-25T19:59:12.565Z,78836.19
2022-10-25T20:01:43.331Z,78853.31
2022-10-25T20:04:14.234Z,78863.81
2022-10-25T20:06:43.229Z,78866.47
2022-10-25T20:09:12.724Z,78863.56
2022-10-25T20:11:41.587Z,78857.25
2022-10-25T20:14:10.710Z,78861.53
2022-10-25T20:16:39.740Z,78846.47
2022-10-25T20:19:08.990Z,78854.00
2022-10-25T20:21:38.499Z,78870.53
2022-10-25T20:24:11.044Z,78866.59
2022-10-25T20:26:45.529Z,78854.75
2022-10-25T20:29:21.479Z,78855.66
2022-10-25T20:31:54.080Z,78859.06
2022-10-25T20:34:24.028Z,78865.19
2022-10-25T20:36:53.046Z,78859.91
2022-10-25T20:39:22.175Z,78857.25
2022-10-25T20:41:51.200Z,78859.25
2022-10-25T20:44:20.265Z,78857.47
2022-10-25T20:46:49.132Z,78862.03
2022-10-25T20:49:18.471Z,78864.06
2022-10-25T20:51:47.355Z,78864.91
2022-10-25T20:54:16.405Z,78799.97
2022-10-25T20:56:45.261Z,78865.06
2022-10-25T20:59:14.494Z,78854.31
2022-10-25T21:01:43.354Z,78852.34
2022-10-25T21:04:16.115Z,78847.88
2022-10-25T21:06:47.873Z,78860.13
2022-10-25T21:09:16.580Z,78841.00
2022-10-25T21:11:45.897Z,78849.38
2022-10-25T21:14:14.876Z,78835.16
2022-10-25T21:16:44.015Z,78832.03
2022-10-25T21:19:12.989Z,78847.25
2022-10-25T21:21:42.131Z,78843.22
2022-10-25T21:24:11.787Z,78842.19
2022-10-25T21:26:41.002Z,78833.22
2022-10-25T21:29:14.023Z,78821.22
2022-10-25T21:31:43.030Z,78841.50
2022-10-25T21:34:12.030Z,78815.28
2022-10-25T21:36:41.347Z,78841.03
2022-10-25T21:39:10.373Z,78820.22
2022-10-25T21:41:39.211Z,78797.81
2022-10-25T21:46:42.513Z,78836.53
2022-10-25T21:49:11.488Z,78826.34
2022-10-25T21:51:40.574Z,78794.97
2022-10-25T21:54:09.576Z,78798.47
2022-10-25T21:56:39.021Z,78810.22
2022-10-25T21:59:07.882Z,78811.00
2022-10-25T22:01:37.151Z,78800.34
2022-10-25T22:04:06.270Z,78785.09
2022-10-25T22:06:35.481Z,78799.28
2022-10-25T22:09:05.176Z,78812.22
2022-10-25T22:11:37.378Z,78820.41
2022-10-25T22:14:11.351Z,78787.84
2022-10-25T22:16:41.492Z,78801.78
2022-10-25T22:19:19.287Z,78813.78
2022-10-25T22:21:51.690Z,78830.34
2022-10-25T22:24:20.829Z,78815.09
2022-10-25T22:26:52.959Z,78815.88
2022-10-25T22:29:22.942Z,78807.59
2022-10-25T22:31:51.852Z,78792.56
2022-10-25T22:34:21.188Z,78798.78
2022-10-25T22:36:50.077Z,78804.06
2022-10-25T22:39:19.161Z,78809.78
2022-10-25T22:41:54.002Z,78808.06
2022-10-25T22:44:23.282Z,78803.31
2022-10-25T22:46:52.268Z,78809.63
2022-10-25T22:49:22.875Z,78796.41
2022-10-25T22:51:52.932Z,78791.81
2022-10-25T22:54:21.960Z,78808.91
2022-10-25T22:56:51.977Z,78821.91
2022-10-25T22:59:20.942Z,78806.81
2022-10-25T23:01:50.218Z,78784.91
2022-10-25T23:04:19.325Z,78820.47
2022-10-25T23:06:49.052Z,78814.06
2022-10-25T23:09:18.053Z,78809.91
2022-10-25T23:11:47.190Z,78800.34
2022-10-25T23:14:17.543Z,78808.84
2022-10-25T23:16:48.059Z,78818.06
2022-10-25T23:19:17.247Z,78817.25
2022-10-25T23:21:46.085Z,78823.13
2022-10-25T23:24:16.034Z,78829.41
2022-10-25T23:26:45.762Z,78834.22
2022-10-25T23:29:14.715Z,78831.72
2022-10-25T23:31:44.017Z,78837.19
2022-10-25T23:34:13.022Z,78834.59
2022-10-25T23:36:42.223Z,78834.63
2022-10-25T23:39:11.633Z,78822.66
2022-10-25T23:41:40.890Z,78838.63
2022-10-25T23:44:09.750Z,78784.44
2022-10-25T23:46:38.946Z,78823.81
2022-10-25T23:49:07.824Z,78833.84
2022-10-25T23:51:37.134Z,78816.72
2022-10-25T23:54:06.310Z,78803.56
2022-10-25T23:56:35.441Z,78826.16
2022-10-25T23:59:04.979Z,78850.50
